Time;durP1;ratioP1;P1;durP2;ratioP2;P2;SDS_P1;SDS_P2;PMS_P1;PMS_P2;Temp;Humidity;BMP_temperature;BMP_pressure;BME280_temperature;BME280_humidity;BME280_pressure;Samples;Min_cycle;Max_cycle;Signal;HPM_P1;HPM_P2
2023/09/14 00:01:20;;;;;;;6.72;3.72;;;18.30;64.10;;;;;;5066060;28;20711;-26
2023/09/14 00:03:52;;;;;;;5.38;3.60;;;18.20;64.10;;;;;;5064662;28;20225;-26
2023/09/14 00:06:19;;;;;;;8.73;4.00;;;18.20;64.10;;;;;;5065990;28;20310;-26
2023/09/14 00:08:48;;;;;;;10.88;4.30;;;18.20;64.20;;;;;;5080633;28;20187;-26
2023/09/14 00:11:19;;;;;;;8.20;4.28;;;18.20;64.20;;;;;;5066888;28;20286;-26
2023/09/14 00:13:46;;;;;;;6.68;3.95;;;18.20;64.30;;;;;;5065951;28;20207;-26
2023/09/14 00:16:14;;;;;;;8.25;3.92;;;18.20;64.30;;;;;;5065921;28;20280;-26
2023/09/14 00:18:41;;;;;;;6.43;3.92;;;18.10;64.30;;;;;;5064157;28;20210;-26
2023/09/14 00:21:08;;;;;;;5.90;3.50;;;18.10;64.30;;;;;;5064223;28;20303;-26
2023/09/14 00:23:38;;;;;;;6.47;3.70;;;18.10;64.30;;;;;;5064989;28;20484;-26
2023/09/14 00:26:06;;;;;;;6.25;3.65;;;18.10;64.40;;;;;;5064281;28;20273;-26
2023/09/14 00:28:37;;;;;;;5.03;3.43;;;18.00;64.40;;;;;;5065622;28;20211;-26
2023/09/14 00:31:07;;;;;;;6.97;3.70;;;18.00;64.40;;;;;;5065066;28;20196;-26
2023/09/14 00:33:34;;;;;;;7.88;3.80;;;18.00;64.40;;;;;;5063817;28;20208;-26
2023/09/14 00:36:02;;;;;;;4.95;3.47;;;18.00;64.80;;;;;;5047311;28;20295;-26
2023/09/14 00:38:32;;;;;;;3.90;3.00;;;17.90;64.40;;;;;;5063503;28;20206;-26
2023/09/14 00:41:01;;;;;;;6.88;3.53;;;18.00;64.50;;;;;;5065346;28;20195;-32
2023/09/14 00:43:28;;;;;;;4.28;3.05;;;17.90;64.50;;;;;;5065519;28;20302;-32
2023/09/14 00:45:55;;;;;;;5.18;3.40;;;17.90;64.50;;;;;;5063640;28;20232;-32
2023/09/14 00:48:25;;;;;;;5.28;3.00;;;17.90;64.60;;;;;;5065346;28;20200;-32
2023/09/14 00:50:55;;;;;;;7.80;3.25;;;17.80;64.60;;;;;;5065335;28;20215;-32
2023/09/14 00:53:22;;;;;;;7.82;3.45;;;17.80;64.60;;;;;;5063105;28;20576;-32
2023/09/14 00:55:50;;;;;;;6.07;3.50;;;17.80;64.70;;;;;;5063403;28;20572;-32
2023/09/14 00:58:20;;;;;;;6.97;3.20;;;17.80;64.70;;;;;;5058745;28;20535;-32
2023/09/14 01:00:48;;;;;;;4.60;3.13;;;17.80;64.80;;;;;;5059161;28;20228;-31
2023/09/14 01:03:16;;;;;;;8.00;3.58;;;17.70;64.70;;;;;;5063402;28;20224;-32
2023/09/14 01:05:49;;;;;;;4.97;3.08;;;17.70;64.70;;;;;;5063045;28;20297;-32
2023/09/14 01:08:16;;;;;;;6.45;3.30;;;17.70;64.80;;;;;;5065035;28;20273;-32
2023/09/14 01:10:44;;;;;;;7.85;3.13;;;17.70;64.80;;;;;;5064335;28;20207;-32
2023/09/14 01:13:19;;;;;;;6.82;3.00;;;17.70;64.90;;;;;;5079737;28;20528;-27
2023/09/14 01:15:54;;;;;;;5.68;2.92;;;17.70;64.90;;;;;;5069333;28;20294;-26
2023/09/14 01:19:01;;;;;;;4.53;2.90;;;17.60;64.90;;;;;;5061178;28;20191;-26
2023/09/14 01:21:49;;;;;;;6.72;3.38;;;17.60;64.90;;;;;;5008833;28;20227;-27
2023/09/14 01:24:22;;;;;;;9.00;3.00;;;17.60;64.90;;;;;;5062350;28;20207;-26
2023/09/14 01:26:52;;;;;;;7.22;3.13;;;17.60;65.00;;;;;;5061740;28;20304;-26
2023/09/14 01:29:19;;;;;;;4.43;2.80;;;17.60;65.10;;;;;;5064265;28;20188;-26
2023/09/14 01:31:47;;;;;;;7.18;2.95;;;17.60;65.10;;;;;;5064061;28;20239;-26
2023/09/14 01:34:17;;;;;;;4.82;3.45;;;17.60;65.10;;;;;;5064289;28;20192;-26
2023/09/14 01:36:56;;;;;;;6.35;3.60;;;17.60;65.00;;;;;;5064274;28;20257;-26
2023/09/14 01:39:25;;;;;;;7.35;3.80;;;17.50;65.10;;;;;;5064149;28;20558;-26
2023/09/14 01:41:55;;;;;;;9.57;3.40;;;17.50;65.00;;;;;;5063672;28;20211;-26
2023/09/14 01:44:28;;;;;;;6.13;3.50;;;17.50;65.00;;;;;;5063718;28;20585;-26
2023/09/14 01:46:58;;;;;;;7.35;3.33;;;17.40;65.00;;;;;;5064087;28;20886;-31
2023/09/14 01:49:28;;;;;;;6.35;3.28;;;17.40;65.10;;;;;;5063586;28;20199;-32
2023/09/14 01:51:57;;;;;;;7.53;3.20;;;17.40;65.10;;;;;;5063530;28;20204;-32
2023/09/14 01:54:25;;;;;;;5.67;3.30;;;17.40;65.10;;;;;;5078562;28;20255;-31
2023/09/14 01:56:54;;;;;;;4.63;3.37;;;17.30;65.10;;;;;;5078798;28;20206;-32
2023/09/14 01:59:21;;;;;;;5.43;3.60;;;17.30;65.10;;;;;;5064215;28;20219;-31
2023/09/14 02:01:48;;;;;;;6.23;3.60;;;17.30;66.00;;;;;;5079073;28;20750;-31
2023/09/14 02:04:16;;;;;;;4.47;3.17;;;17.30;65.30;;;;;;5064388;28;20212;-32
2023/09/14 02:06:45;;;;;;;8.20;3.73;;;17.30;65.30;;;;;;5063809;28;20226;-32
2023/09/14 02:09:12;;;;;;;5.95;3.35;;;17.20;65.30;;;;;;5063595;28;20354;-32
2023/09/14 02:11:43;;;;;;;3.72;2.70;;;17.20;65.40;;;;;;5078833;28;20302;-32
2023/09/14 02:14:13;;;;;;;6.90;2.95;;;17.20;65.40;;;;;;5064361;28;20230;-32
2023/09/14 02:16:43;;;;;;;8.07;3.03;;;17.20;65.40;;;;;;5078596;28;20678;-31
2023/09/14 02:19:12;;;;;;;4.88;3.20;;;17.20;65.50;;;;;;5063899;28;20204;-31
2023/09/14 02:21:44;;;;;;;6.60;3.87;;;17.10;65.40;;;;;;5077384;28;20217;-31
2023/09/14 02:24:14;;;;;;;6.28;3.30;;;17.10;65.40;;;;;;5063472;28;20207;-32
2023/09/14 02:26:41;;;;;;;6.90;2.97;;;17.10;65.50;;;;;;5063473;28;20314;-31
2023/09/14 02:29:08;;;;;;;6.53;3.00;;;17.10;65.50;;;;;;5063591;28;20219;-31
2023/09/14 02:31:35;;;;;;;7.50;3.38;;;17.10;65.50;;;;;;5061918;28;20240;-32
2023/09/14 02:34:03;;;;;;;8.00;3.25;;;17.10;65.50;;;;;;5061708;28;20280;-31
2023/09/14 02:36:30;;;;;;;10.25;3.92;;;17.00;65.50;;;;;;5078797;28;20751;-31
2023/09/14 02:38:59;;;;;;;7.22;3.85;;;17.00;66.30;;;;;;5062818;28;20261;-31
2023/09/14 02:41:26;;;;;;;7.88;3.92;;;17.00;65.50;;;;;;5063535;28;20199;-32
2023/09/14 02:43:54;;;;;;;5.30;3.55;;;16.90;65.50;;;;;;5061649;28;20280;-31
2023/09/14 02:46:21;;;;;;;6.47;4.20;;;17.00;65.70;;;;;;5061768;28;20227;-31
2023/09/14 02:48:49;;;;;;;8.43;4.27;;;16.90;65.60;;;;;;5063248;28;20579;-32
2023/09/14 02:51:16;;;;;;;7.47;3.90;;;16.90;65.60;;;;;;5061495;28;20618;-31
2023/09/14 02:53:43;;;;;;;14.13;4.17;;;16.90;65.70;;;;;;5063537;28;20239;-32
2023/09/14 02:56:15;;;;;;;8.48;3.78;;;16.90;65.80;;;;;;5065691;28;20287;-32
2023/09/14 02:58:45;;;;;;;5.67;3.77;;;16.80;65.70;;;;;;5065649;28;20682;-31
2023/09/14 03:01:13;;;;;;;9.33;4.63;;;16.80;65.70;;;;;;5065708;28;20652;-32
2023/09/14 03:03:42;;;;;;;8.82;3.83;;;16.80;65.70;;;;;;5065459;28;20214;-32
2023/09/14 03:06:09;;;;;;;7.53;3.77;;;16.80;65.70;;;;;;5065435;28;20223;-31
2023/09/14 03:08:37;;;;;;;6.90;4.03;;;16.70;65.60;;;;;;5064705;28;20588;-31
2023/09/14 03:11:07;;;;;;;8.87;3.90;;;16.80;65.70;;;;;;5065530;28;20199;-31
2023/09/14 03:13:35;;;;;;;6.37;3.57;;;16.70;65.70;;;;;;5065636;28;20268;-32
2023/09/14 03:16:04;;;;;;;9.20;4.00;;;16.70;65.70;;;;;;5065150;28;20286;-32
2023/09/14 03:18:31;;;;;;;9.37;3.87;;;16.70;65.80;;;;;;5067256;28;20199;-32
2023/09/14 03:21:01;;;;;;;5.47;3.97;;;16.70;65.80;;;;;;5067538;28;20508;-31
2023/09/14 03:23:29;;;;;;;8.20;4.10;;;16.60;65.80;;;;;;5066184;28;20550;-31
2023/09/14 03:25:58;;;;;;;8.33;3.80;;;16.60;65.90;;;;;;5066288;28;20207;-32
2023/09/14 03:28:27;;;;;;;6.63;3.90;;;16.60;65.90;;;;;;5066451;28;20232;-32
2023/09/14 03:30:54;;;;;;;5.93;3.77;;;16.60;65.90;;;;;;5064584;28;20685;-31
2023/09/14 03:33:22;;;;;;;6.27;3.10;;;16.60;65.90;;;;;;5066582;28;20206;-31
2023/09/14 03:35:49;;;;;;;5.07;2.50;;;16.50;65.90;;;;;;5064772;28;20269;-31
2023/09/14 03:38:19;;;;;;;9.30;3.17;;;16.50;66.00;;;;;;5064298;28;20744;-31
2023/09/14 03:40:46;;;;;;;4.37;2.50;;;16.50;66.00;;;;;;5066137;28;20685;-26
2023/09/14 03:43:16;;;;;;;5.60;2.77;;;16.50;66.10;;;;;;5066265;28;20261;-26
2023/09/14 03:45:43;;;;;;;4.20;2.60;;;16.50;66.10;;;;;;5081377;28;20203;-26
2023/09/14 03:48:10;;;;;;;5.80;2.73;;;16.50;66.20;;;;;;5066475;28;20314;-26
2023/09/14 03:50:38;;;;;;;4.33;2.40;;;16.50;66.20;;;;;;5064945;28;20230;-26
2023/09/14 03:53:05;;;;;;;3.27;2.53;;;16.50;66.20;;;;;;5064663;28;20648;-26
2023/09/14 03:55:33;;;;;;;8.43;2.80;;;16.40;66.10;;;;;;5067329;28;20658;-26
2023/09/14 03:58:00;;;;;;;7.07;2.30;;;16.40;66.10;;;;;;5065984;28;20472;-26
2023/09/14 04:00:28;;;;;;;5.50;2.90;;;16.40;66.20;;;;;;5081123;28;20348;-26
2023/09/14 04:02:58;;;;;;;8.40;3.20;;;16.40;66.20;;;;;;5065912;28;20200;-26
2023/09/14 04:05:29;;;;;;;3.77;2.30;;;16.40;66.20;;;;;;5063085;28;20369;-26
2023/09/14 04:07:58;;;;;;;5.87;2.27;;;16.40;66.20;;;;;;5065531;28;20219;-26
2023/09/14 04:10:27;;;;;;;4.57;2.67;;;16.40;66.30;;;;;;5064307;28;20469;-26
2023/09/14 04:13:32;;;;;;;7.17;2.50;;;16.30;66.20;;;;;;5080942;28;20669;-26
2023/09/14 04:16:01;;;;;;;4.50;2.93;;;16.30;66.40;;;;;;5065872;28;20222;-26
2023/09/14 04:18:36;;;;;;;6.23;3.10;;;16.30;66.20;;;;;;5065754;28;20203;-26
2023/09/14 04:21:05;;;;;;;12.93;2.80;;;16.30;66.30;;;;;;5065376;28;20203;-26
2023/09/14 04:23:32;;;;;;;6.27;2.80;;;16.30;66.30;;;;;;5080357;28;20388;-26
2023/09/14 04:26:01;;;;;;;7.43;3.57;;;16.30;66.30;;;;;;5065422;28;20247;-26
2023/09/14 04:28:30;;;;;;;4.90;2.70;;;16.30;66.30;;;;;;5064190;28;20231;-26
2023/09/14 04:31:02;;;;;;;7.37;3.00;;;16.20;66.30;;;;;;5065342;28;20196;-26
2023/09/14 04:33:32;;;;;;;7.93;4.00;;;16.20;66.30;;;;;;5052994;28;20237;-26
2023/09/14 04:36:06;;;;;;;8.87;3.50;;;16.20;66.30;;;;;;5056444;28;20196;-26
2023/09/14 04:38:38;;;;;;;8.63;4.53;;;16.20;66.30;;;;;;5050272;28;20261;-26
2023/09/14 04:41:07;;;;;;;7.53;4.60;;;16.20;66.40;;;;;;5051931;28;20259;-26
2023/09/14 04:43:34;;;;;;;10.40;5.47;;;16.20;66.40;;;;;;5049061;28;20558;-26
2023/09/14 04:46:04;;;;;;;11.73;5.00;;;16.20;66.40;;;;;;5064282;28;20203;-25
2023/09/14 04:48:38;;;;;;;6.70;4.57;;;16.10;66.30;;;;;;5063726;28;20241;-26
2023/09/14 04:51:08;;;;;;;7.43;6.03;;;16.10;66.40;;;;;;5065152;28;20218;-32
2023/09/14 04:53:42;;;;;;;7.50;6.20;;;16.10;66.50;;;;;;5077551;28;20206;-32
2023/09/14 04:56:09;;;;;;;7.83;6.03;;;16.10;66.60;;;;;;5044718;28;20302;-32
2023/09/14 04:58:36;;;;;;;8.03;6.17;;;16.10;66.60;;;;;;5046840;28;20621;-31
2023/09/14 05:01:05;;;;;;;7.43;6.63;;;16.10;66.60;;;;;;5067805;28;20290;-31
2023/09/14 05:03:33;;;;;;;6.53;5.72;;;16.10;66.70;;;;;;5054483;28;20235;-32
2023/09/14 05:06:03;;;;;;;8.23;6.40;;;16.10;66.70;;;;;;5070700;28;20211;-26
2023/09/14 05:08:30;;;;;;;6.33;5.27;;;16.10;66.70;;;;;;5050281;28;20211;-26
2023/09/14 05:10:58;;;;;;;6.25;5.20;;;16.10;66.70;;;;;;5056697;28;20223;-26
2023/09/14 05:13:25;;;;;;;5.67;4.97;;;16.10;66.70;;;;;;5057903;28;20510;-26
2023/09/14 05:15:55;;;;;;;8.73;5.13;;;16.10;66.70;;;;;;5048064;28;20223;-26
2023/09/14 05:18:24;;;;;;;9.07;5.80;;;16.10;66.70;;;;;;5059611;28;20200;-26
2023/09/14 05:20:51;;;;;;;8.30;5.57;;;16.00;66.70;;;;;;5070351;28;20229;-27
2023/09/14 05:23:19;;;;;;;9.43;5.30;;;16.00;66.70;;;;;;5043826;28;20261;-26
2023/09/14 05:25:51;;;;;;;7.10;5.53;;;16.00;66.70;;;;;;5058746;28;20216;-26
2023/09/14 05:28:20;;;;;;;12.17;5.73;;;16.00;66.70;;;;;;5059079;28;20228;-26
2023/09/14 05:30:50;;;;;;;5.50;4.30;;;16.00;66.80;;;;;;5044408;28;20258;-26
2023/09/14 05:33:20;;;;;;;8.47;4.50;;;15.90;66.70;;;;;;5059263;28;20208;-26
2023/09/14 05:35:50;;;;;;;7.37;4.80;;;15.90;66.80;;;;;;5050211;28;20312;-26
2023/09/14 05:38:20;;;;;;;5.13;4.57;;;15.90;66.90;;;;;;5057150;28;20280;-26
2023/09/14 05:40:52;;;;;;;7.70;5.67;;;15.90;66.90;;;;;;5070869;28;20227;-26
2023/09/14 05:43:21;;;;;;;7.43;5.00;;;15.90;66.90;;;;;;5051165;28;20219;-27
2023/09/14 05:45:53;;;;;;;7.17;5.40;;;15.90;66.90;;;;;;5050977;28;20195;-26
2023/09/14 05:48:20;;;;;;;8.57;5.23;;;15.90;67.00;;;;;;5051483;28;20333;-26
2023/09/14 05:50:48;;;;;;;6.43;4.70;;;15.90;67.00;;;;;;5042494;28;20565;-27
2023/09/14 05:53:15;;;;;;;10.87;5.17;;;15.90;67.00;;;;;;5057731;28;20208;-27
2023/09/14 05:55:47;;;;;;;6.30;4.70;;;15.90;67.00;;;;;;5044576;28;20216;-27
2023/09/14 05:58:19;;;;;;;12.03;4.67;;;15.90;67.10;;;;;;5044988;28;20290;-26
2023/09/14 06:00:46;;;;;;;10.10;5.20;;;15.90;67.20;;;;;;5050814;28;20604;-27
2023/09/14 06:03:14;;;;;;;9.68;4.80;;;15.90;67.10;;;;;;5056504;28;20222;-26
2023/09/14 06:05:41;;;;;;;7.35;5.10;;;15.90;67.20;;;;;;5044288;28;20536;-26
2023/09/14 06:08:10;;;;;;;9.33;5.27;;;15.90;67.20;;;;;;5069480;28;20307;-27
2023/09/14 06:10:38;;;;;;;8.37;5.83;;;15.90;67.30;;;;;;5066528;28;20216;-27
2023/09/14 06:13:05;;;;;;;10.97;6.40;;;15.90;67.20;;;;;;5069203;28;20789;-26
2023/09/14 06:15:32;;;;;;;12.63;5.68;;;15.90;67.30;;;;;;5073378;28;20206;-26
2023/09/14 06:18:04;;;;;;;8.87;6.20;;;15.90;67.40;;;;;;5074582;28;20223;-26
2023/09/14 06:20:36;;;;;;;9.97;6.80;;;15.90;67.50;;;;;;5064595;28;20314;-26
2023/09/14 06:23:08;;;;;;;12.23;6.87;;;16.00;67.60;;;;;;5044840;28;20212;-26
2023/09/14 06:25:35;;;;;;;11.30;6.87;;;16.00;67.60;;;;;;5044135;28;20243;-26
2023/09/14 06:28:05;;;;;;;10.60;6.27;;;16.00;67.60;;;;;;5058783;28;20293;-26
2023/09/14 06:30:34;;;;;;;10.00;6.90;;;16.00;67.60;;;;;;5046165;28;20203;-26
2023/09/14 06:33:01;;;;;;;8.37;5.87;;;16.10;67.70;;;;;;5052867;28;20634;-26
2023/09/14 06:35:35;;;;;;;10.47;6.80;;;16.10;67.70;;;;;;5062530;28;20322;-26
2023/09/14 06:38:05;;;;;;;13.93;7.77;;;16.10;67.70;;;;;;5077694;28;20223;-26
2023/09/14 06:40:37;;;;;;;12.47;8.30;;;16.10;67.70;;;;;;5076058;28;20211;-26
2023/09/14 06:43:07;;;;;;;10.90;8.60;;;16.20;67.90;;;;;;5045423;28;20329;-26
2023/09/14 06:45:36;;;;;;;12.77;9.33;;;16.20;67.80;;;;;;5046472;28;20243;-26
2023/09/14 06:48:04;;;;;;;20.00;10.18;;;16.20;67.90;;;;;;5049540;28;20234;-26
2023/09/14 06:50:31;;;;;;;14.68;9.90;;;16.30;67.90;;;;;;5049175;28;20310;-26
2023/09/14 06:52:58;;;;;;;14.93;9.60;;;16.30;68.00;;;;;;5050949;28;20295;-27
2023/09/14 06:55:26;;;;;;;18.23;10.63;;;16.40;68.10;;;;;;5042316;28;20200;-26
2023/09/14 06:57:53;;;;;;;23.40;11.90;;;16.40;68.10;;;;;;5043012;28;20398;-26
2023/09/14 07:00:21;;;;;;;25.60;12.70;;;16.40;68.10;;;;;;5047826;28;20203;-26
2023/09/14 07:02:48;;;;;;;25.03;10.53;;;16.50;68.20;;;;;;5046716;28;20350;-26
2023/09/14 07:05:18;;;;;;;15.60;12.23;;;16.50;68.20;;;;;;5052718;28;20285;-26
2023/09/14 07:07:45;;;;;;;16.23;11.93;;;16.60;68.20;;;;;;5058403;28;20235;-26
2023/09/14 07:10:13;;;;;;;15.17;12.80;;;16.60;68.20;;;;;;5077331;28;20207;-26
2023/09/14 07:12:40;;;;;;;15.43;11.93;;;16.70;68.30;;;;;;5062511;28;20569;-27
2023/09/14 07:15:10;;;;;;;22.17;13.40;;;16.70;68.30;;;;;;5063074;28;20554;-26
2023/09/14 07:17:37;;;;;;;17.13;12.35;;;16.70;68.30;;;;;;5074389;28;20629;-26
2023/09/14 07:20:12;;;;;;;15.97;12.47;;;16.80;68.40;;;;;;5047642;28;20269;-26
2023/09/14 07:22:39;;;;;;;14.63;12.60;;;16.80;68.40;;;;;;5076651;28;20214;-26
2023/09/14 07:25:08;;;;;;;15.53;12.20;;;16.80;68.40;;;;;;5076900;28;20228;-26
2023/09/14 07:27:38;;;;;;;15.45;11.27;;;16.90;68.50;;;;;;5059719;28;20196;-26
2023/09/14 07:30:06;;;;;;;17.73;12.50;;;16.90;68.60;;;;;;5059011;28;20296;-26
2023/09/14 07:32:34;;;;;;;16.70;11.60;;;17.00;68.60;;;;;;5077296;28;20681;-26
2023/09/14 07:35:02;;;;;;;14.00;11.20;;;17.10;68.70;;;;;;5067314;28;20224;-26
2023/09/14 07:37:31;;;;;;;14.90;12.10;;;17.10;68.70;;;;;;5042358;28;20216;-26
2023/09/14 07:40:00;;;;;;;15.80;11.75;;;17.20;68.70;;;;;;5043712;28;20339;-26
2023/09/14 07:42:27;;;;;;;16.13;11.65;;;17.20;68.70;;;;;;5060916;28;20196;-26
2023/09/14 07:44:54;;;;;;;15.90;10.77;;;17.30;68.70;;;;;;5060952;28;20211;-26
2023/09/14 07:47:28;;;;;;;13.27;10.50;;;17.40;68.70;;;;;;5060448;28;20222;-26
2023/09/14 07:49:55;;;;;;;17.63;10.73;;;17.40;68.70;;;;;;5050698;28;20223;-26
2023/09/14 07:52:23;;;;;;;13.70;9.98;;;17.40;68.70;;;;;;5080710;28;20282;-26
2023/09/14 07:54:50;;;;;;;11.43;9.60;;;17.50;68.70;;;;;;5065679;28;20200;-26
2023/09/14 07:57:17;;;;;;;10.25;8.52;;;17.50;68.70;;;;;;5065567;28;20203;-26
2023/09/14 07:59:47;;;;;;;17.52;10.25;;;17.60;68.80;;;;;;5061500;28;20639;-26
2023/09/14 08:02:14;;;;;;;12.27;9.30;;;17.60;68.80;;;;;;5064011;28;20326;-26
2023/09/14 08:04:43;;;;;;;9.77;8.75;;;17.70;68.80;;;;;;5056644;28;21641;-26
2023/09/14 08:07:11;;;;;;;18.73;8.88;;;17.70;68.80;;;;;;5049796;28;20205;-26
2023/09/14 08:09:40;;;;;;;9.90;8.25;;;17.70;68.70;;;;;;5045230;28;20273;-26
2023/09/14 08:12:10;;;;;;;9.77;8.50;;;17.80;68.80;;;;;;5048870;28;20395;-26
2023/09/14 08:14:37;;;;;;;11.03;8.23;;;17.80;68.70;;;;;;5066387;28;20200;-26
2023/09/14 08:17:07;;;;;;;11.30;8.23;;;17.90;68.80;;;;;;5065849;28;20231;-26
2023/09/14 08:19:37;;;;;;;10.23;9.07;;;17.90;68.90;;;;;;5061598;28;20266;-26
2023/09/14 08:22:06;;;;;;;10.35;9.25;;;18.00;68.90;;;;;;5055911;28;20289;-26
2023/09/14 08:24:33;;;;;;;10.18;9.18;;;18.00;68.90;;;;;;5047309;28;20659;-26
2023/09/14 08:27:03;;;;;;;9.63;8.63;;;18.00;68.90;;;;;;5047071;28;20556;-26
2023/09/14 08:29:30;;;;;;;12.15;8.77;;;18.10;69.70;;;;;;5062308;28;20227;-26
2023/09/14 08:31:59;;;;;;;10.25;8.57;;;18.10;68.90;;;;;;5053107;28;20698;-26
2023/09/14 08:34:31;;;;;;;11.13;8.85;;;18.20;68.90;;;;;;5058373;28;20223;-26
2023/09/14 08:37:01;;;;;;;10.07;7.38;;;18.20;68.80;;;;;;5046602;28;20309;-26
2023/09/14 08:39:29;;;;;;;12.57;8.18;;;18.30;68.90;;;;;;5047102;28;20219;-26
2023/09/14 08:41:56;;;;;;;11.75;8.68;;;18.40;68.90;;;;;;5067070;28;20212;-26
2023/09/14 08:44:26;;;;;;;10.10;7.55;;;18.40;69.60;;;;;;5048672;28;20208;-26
2023/09/14 08:46:58;;;;;;;9.35;8.32;;;18.40;69.00;;;;;;5049443;28;20265;-26
2023/09/14 08:49:30;;;;;;;12.40;8.35;;;18.50;69.00;;;;;;5064317;28;20226;-26
2023/09/14 08:52:03;;;;;;;20.33;8.57;;;18.50;68.90;;;;;;5061598;28;20289;-26
2023/09/14 08:54:36;;;;;;;22.40;9.35;;;18.60;69.00;;;;;;5063920;28;20195;-26
2023/09/14 08:57:07;;;;;;;10.63;8.35;;;18.60;69.00;;;;;;5060622;28;20267;-26
2023/09/14 08:59:36;;;;;;;12.82;8.73;;;18.70;69.00;;;;;;5064229;28;20215;-26
2023/09/14 09:02:11;;;;;;;11.10;8.55;;;18.70;68.90;;;;;;5064980;28;20808;-26
2023/09/14 09:04:38;;;;;;;9.25;6.85;;;18.80;68.90;;;;;;5074233;28;20203;-26
2023/09/14 09:07:07;;;;;;;8.93;7.18;;;18.80;69.00;;;;;;5066643;28;20222;-26
2023/09/14 09:09:35;;;;;;;10.45;7.43;;;18.90;69.00;;;;;;5056112;28;20226;-26
2023/09/14 09:12:08;;;;;;;9.77;8.57;;;18.90;69.00;;;;;;5065012;28;20235;-26
2023/09/14 09:14:37;;;;;;;9.30;8.02;;;19.00;68.90;;;;;;5078312;28;20211;-26
2023/09/14 09:17:04;;;;;;;11.38;8.05;;;19.00;68.90;;;;;;5052130;28;20622;-26
2023/09/14 09:19:48;;;;;;;10.00;8.02;;;19.10;69.00;;;;;;5065121;28;20253;-26
2023/09/14 09:22:15;;;;;;;10.07;8.63;;;19.10;68.90;;;;;;5051543;28;20212;-26
2023/09/14 09:24:45;;;;;;;8.20;7.35;;;19.10;68.80;;;;;;5066401;28;20206;-28
2023/09/14 09:27:28;;;;;;;12.85;8.18;;;19.20;68.80;;;;;;5064289;28;20741;-26
2023/09/14 09:29:59;;;;;;;12.40;7.10;;;19.20;68.80;;;;;;5065667;28;20328;-26
2023/09/14 09:32:26;;;;;;;8.60;7.70;;;19.20;68.80;;;;;;5063838;28;20667;-26
2023/09/14 09:34:54;;;;;;;7.95;7.07;;;19.30;68.80;;;;;;5054660;28;20315;-26
2023/09/14 09:37:23;;;;;;;10.63;7.50;;;19.30;68.70;;;;;;5058947;28;20204;-26
2023/09/14 09:39:51;;;;;;;8.88;7.95;;;19.40;68.80;;;;;;5042337;28;20220;-26
2023/09/14 09:42:19;;;;;;;9.75;8.02;;;19.40;68.80;;;;;;5073247;28;20222;-26
2023/09/14 09:44:49;;;;;;;10.52;6.68;;;19.40;68.80;;;;;;5063869;28;20292;-26
2023/09/14 09:47:21;;;;;;;9.32;6.68;;;19.40;68.70;;;;;;5072957;28;20232;-26
2023/09/14 09:49:49;;;;;;;6.22;5.63;;;19.50;68.80;;;;;;5062899;28;20227;-27
2023/09/14 09:52:18;;;;;;;7.65;6.50;;;19.50;68.80;;;;;;5067487;28;20824;-27
2023/09/14 09:54:48;;;;;;;8.52;6.53;;;19.60;68.80;;;;;;5058499;28;20294;-26
2023/09/14 09:57:22;;;;;;;7.75;6.20;;;19.60;68.80;;;;;;5046901;28;20809;-26
2023/09/14 09:59:55;;;;;;;7.95;4.95;;;19.70;68.80;;;;;;5055530;28;20208;-26
2023/09/14 10:02:31;;;;;;;5.65;4.40;;;19.70;68.70;;;;;;5053543;28;20238;-27
2023/09/14 10:04:59;;;;;;;7.68;4.97;;;19.70;68.60;;;;;;5054528;28;20214;-27
2023/09/14 10:07:26;;;;;;;8.43;5.13;;;19.80;68.60;;;;;;5045596;28;20302;-26
2023/09/14 10:09:54;;;;;;;6.85;5.18;;;19.80;68.50;;;;;;5059168;28;20650;-26
2023/09/14 10:12:29;;;;;;;5.03;3.97;;;19.80;68.40;;;;;;5049534;28;20219;-26
2023/09/14 10:15:03;;;;;;;4.57;3.60;;;19.80;68.50;;;;;;5053031;28;20203;-26
2023/09/14 10:17:31;;;;;;;4.63;3.53;;;19.90;68.60;;;;;;5063511;28;20213;-26
2023/09/14 10:20:09;;;;;;;5.13;4.10;;;19.90;68.60;;;;;;5063141;28;20909;-26
2023/09/14 10:22:41;;;;;;;5.00;4.00;;;20.00;68.60;;;;;;5045972;28;20314;-26
2023/09/14 10:25:09;;;;;;;3.80;3.38;;;20.00;68.60;;;;;;5071941;28;20261;-32
2023/09/14 10:27:38;;;;;;;5.00;3.35;;;20.10;68.60;;;;;;5046353;28;20738;-32
2023/09/14 10:30:08;;;;;;;6.18;4.10;;;20.10;68.70;;;;;;5052453;28;20277;-32
2023/09/14 10:32:38;;;;;;;5.03;3.58;;;20.20;68.60;;;;;;5055746;28;20207;-33
2023/09/14 10:35:07;;;;;;;6.38;4.10;;;20.30;68.60;;;;;;5057501;28;20314;-32
2023/09/14 10:37:37;;;;;;;4.82;3.40;;;20.30;68.40;;;;;;5056991;28;20204;-32
2023/09/14 10:40:08;;;;;;;4.03;2.85;;;20.40;68.40;;;;;;5056417;28;20624;-32
2023/09/14 10:42:35;;;;;;;3.78;3.10;;;20.40;68.40;;;;;;5054569;28;20315;-33
2023/09/14 10:45:04;;;;;;;4.43;3.03;;;20.40;68.50;;;;;;5061631;28;20855;-33
2023/09/14 10:47:37;;;;;;;5.80;2.63;;;20.50;68.40;;;;;;5060142;28;20200;-33
2023/09/14 10:50:08;;;;;;;4.75;2.88;;;20.50;68.40;;;;;;5052548;28;20267;-33
2023/09/14 10:52:40;;;;;;;5.28;3.45;;;20.60;68.30;;;;;;5054965;28;20227;-32
2023/09/14 10:55:09;;;;;;;4.35;3.53;;;20.60;68.20;;;;;;5048568;28;20616;-33
2023/09/14 10:57:40;;;;;;;3.38;3.05;;;20.70;68.20;;;;;;5048329;28;20315;-33
2023/09/14 11:00:28;;;;;;;4.80;3.00;;;20.70;68.10;;;;;;5049999;28;20261;-33
2023/09/14 11:03:17;;;;;;;4.13;3.33;;;20.70;68.20;;;;;;5051489;28;20724;-32
2023/09/14 11:05:52;;;;;;;5.38;3.17;;;20.80;68.20;;;;;;5054556;28;20206;-32
2023/09/14 11:08:23;;;;;;;6.20;3.22;;;20.80;68.20;;;;;;5060531;28;20215;-33
2023/09/14 11:10:59;;;;;;;7.15;3.75;;;20.90;68.20;;;;;;5059893;28;20265;-33
2023/09/14 11:13:32;;;;;;;4.65;3.22;;;21.00;68.10;;;;;;5057501;28;20631;-32
2023/09/14 11:16:14;;;;;;;5.70;3.03;;;21.00;68.10;;;;;;5054237;28;20202;-33
2023/09/14 11:18:42;;;;;;;5.40;3.55;;;21.10;68.00;;;;;;5058530;28;20680;-32
2023/09/14 11:21:31;;;;;;;5.97;3.53;;;21.10;68.10;;;;;;5054393;28;20704;-32
2023/09/14 11:24:02;;;;;;;5.82;4.45;;;21.20;68.10;;;;;;5076913;28;20219;-33
2023/09/14 11:26:47;;;;;;;6.15;3.63;;;21.30;68.10;;;;;;5060327;28;20242;-33
2023/09/14 11:29:16;;;;;;;6.95;3.38;;;21.30;68.00;;;;;;5050990;28;20286;-33
2023/09/14 11:32:04;;;;;;;5.10;3.13;;;21.40;68.10;;;;;;5065561;28;20204;-33
2023/09/14 11:34:39;;;;;;;4.68;3.60;;;21.40;68.70;;;;;;5048757;28;21245;-33
2023/09/14 11:37:16;;;;;;;3.67;2.63;;;21.50;67.90;;;;;;5056309;28;20196;-33
2023/09/14 11:39:58;;;;;;;5.05;2.67;;;21.60;68.70;;;;;;5046986;28;20270;-33
2023/09/14 11:43:20;;;;;;;4.20;2.80;;;21.60;67.80;;;;;;5053178;28;20212;-33
2023/09/14 11:46:11;;;;;;;4.55;3.00;;;21.70;67.60;;;;;;5045982;28;20321;-32
2023/09/14 11:48:48;;;;;;;4.28;2.60;;;21.70;67.20;;;;;;5067050;28;20214;-33
2023/09/14 11:51:24;;;;;;;5.20;2.90;;;21.70;67.30;;;;;;5048249;28;20238;-33
2023/09/14 11:53:56;;;;;;;3.22;2.70;;;21.80;67.50;;;;;;5044619;28;20197;-33
2023/09/14 11:56:27;;;;;;;4.57;2.90;;;21.80;67.50;;;;;;5052171;28;20590;-33
2023/09/14 11:58:58;;;;;;;3.05;2.38;;;21.80;67.20;;;;;;5061215;28;20268;-33
2023/09/14 12:01:31;;;;;;;3.47;2.70;;;21.80;67.30;;;;;;5051672;28;20642;-33
2023/09/14 12:04:03;;;;;;;4.60;2.30;;;21.90;67.40;;;;;;5064397;28;20199;-27
2023/09/14 12:06:31;;;;;;;3.97;2.35;;;21.90;67.10;;;;;;5054354;28;20240;-27
2023/09/14 12:08:58;;;;;;;3.72;2.25;;;22.00;66.90;;;;;;5058514;28;20244;-26
2023/09/14 12:11:45;;;;;;;6.90;1.85;;;22.00;67.00;;;;;;5061306;28;20432;-26
2023/09/14 12:14:12;;;;;;;4.35;2.00;;;22.00;67.00;;;;;;5059266;28;20709;-27
2023/09/14 12:16:39;;;;;;;6.78;2.45;;;22.00;67.10;;;;;;5056783;28;20227;-32
2023/09/14 12:19:13;;;;;;;5.47;1.80;;;22.10;67.20;;;;;;5049430;28;20331;-32
2023/09/14 12:21:41;;;;;;;2.65;1.90;;;22.20;67.20;;;;;;5057899;28;20313;-32
2023/09/14 12:24:08;;;;;;;4.47;2.10;;;22.20;67.20;;;;;;5051006;28;20212;-33
2023/09/14 12:26:37;;;;;;;4.82;2.30;;;22.20;67.00;;;;;;5054796;28;20708;-33
2023/09/14 12:29:04;;;;;;;5.95;2.50;;;22.30;67.00;;;;;;5057625;28;20379;-32
2023/09/14 12:31:40;;;;;;;4.13;2.30;;;22.30;67.00;;;;;;5060577;28;20274;-33
2023/09/14 12:34:14;;;;;;;6.10;2.30;;;22.30;66.80;;;;;;5050613;28;20301;-32
2023/09/14 12:36:42;;;;;;;4.57;2.22;;;22.40;66.70;;;;;;5060110;28;20625;-32
2023/09/14 12:39:12;;;;;;;6.45;2.40;;;22.40;66.70;;;;;;5057187;28;20206;-32
2023/09/14 12:41:41;;;;;;;5.65;2.38;;;22.50;66.70;;;;;;5051204;28;20208;-33
2023/09/14 12:44:09;;;;;;;3.95;1.88;;;22.50;66.70;;;;;;5065591;28;20274;-33
2023/09/14 12:46:40;;;;;;;4.70;2.35;;;22.50;66.50;;;;;;5054496;28;20314;-32
2023/09/14 12:49:13;;;;;;;4.15;2.30;;;22.50;66.50;;;;;;5049958;28;20220;-32
2023/09/14 12:51:48;;;;;;;2.83;1.92;;;22.50;65.90;;;;;;5049146;28;20553;-33
2023/09/14 12:54:19;;;;;;;3.88;1.70;;;22.50;66.00;;;;;;5046952;28;20211;-32
2023/09/14 12:56:46;;;;;;;3.45;1.70;;;22.60;65.80;;;;;;5063308;28;20204;-32
2023/09/14 12:59:16;;;;;;;2.60;1.90;;;22.50;65.70;;;;;;5060852;28;20254;-32